Walls, Mississippi
Current Conditions -  °F | °C
As of 5:54 AM on Sunday 23 Nov 2014 (Local Time) from KMEM Reporting Station
Overcast Overcast  
Wind Chill: 60°   Ceiling: 1300
Heat Index: 60°   Visibility: 10mi
Dew Point: 55°   Wind: 15mph
Humidity: 83%   Direction: 140°SE
Pressure: 29.76"   Gusts: 24mph
Location:  34.94°N, 90.09°W
Report Text: KMEM 231154Z 14013G21KT 10SM OVC013 16/13 A2976 RMK AO2 SLP075 T01560128 10161 20144 56028 $
Loading
Personal Weather Stations






























Interactive Weather Map New forecast layout! Learn more

10-Day Weather Forecast

Advertisements
Track Severe Weather on mobile